DABC/CZL METAR and TAF weather

Enter ICAO airport designator
Station Type Date Time Source
DABC METAR 2021/05/15 22:00 UTC NOAA

DABC 152200Z 15003KT CAVOK 15/08 Q1018


Station Type Date Time Source
DABC Decoded METAR 2021/05/15 22:00 UTC NOAA

Constantine, Algeria (DABC) 36-17N 006-37E 694M
May 15, 2021 - 06:00 PM EDT / 2021.05.15 2200 UTC
Wind: from the SSE (150 degrees) at 3 MPH (3 KT):0
Visibility: greater than 7 mile(s):0
Temperature: 59 F (15 C)
Dew Point: 46 F (8 C)
Relative Humidity: 62%
Pressure (altimeter): 30.06 in. Hg (1018 hPa)
ob: DABC 152200Z 15003KT CAVOK 15/08 Q1018
cycle: 22

Station Type Date Time Source
DABC TAF 2021/05/15 18:46 UTC NOAA

TAF DABC 151700Z 1518/1618 08008KT CAVOK

Example: see airport list